5LL5 weather

Gordon Brown Airport
Trivoli, Illinois, United States

Public forecast

Using degrees Fahrenheit for public forecast. Weather courtesy of forecast.io.

METAR (pilot weather report)

Closest report is General Wayne A. Downing Peoria International Airport, 9.0 nm (16.6 km) ESE. Retrieved 2019/06/20 22:54 UTC (36 minutes ago):

KPIA 202254Z VRB03KT 10SM FEW050 25/13 A2982 RMK AO2 SLP093 T02500128

TAF (pilot weather forecast)

Closest forecast is General Wayne A. Downing Peoria International Airport, 9.0 nm (16.6 km) ESE. Retrieved 2019/06/20 18:42 UTC (5 hours ago):

TAF KPIA 201740Z 2018/2118 30012KT P6SM SCT025 FM210000 35005KT P6SM SCT150 FM211200 11009KT P6SM BKN080